sensor_id;sensor_type;location;lat;lon;timestamp;P1;durP1;ratioP1;P2;durP2;ratioP2
18623;SDS011;9441;51.420;7.036;2023-05-29T00:00:13;5.68;;;2.80;;
18623;SDS011;9441;51.420;7.036;2023-05-29T00:01:17;5.68;;;3.13;;
18623;SDS011;9441;51.420;7.036;2023-05-29T00:02:21;8.18;;;3.03;;
18623;SDS011;9441;51.420;7.036;2023-05-29T00:03:22;6.55;;;2.70;;
18623;SDS011;9441;51.420;7.036;2023-05-29T00:04:25;3.85;;;2.63;;
18623;SDS011;9441;51.420;7.036;2023-05-29T00:05:26;5.55;;;2.97;;
18623;SDS011;9441;51.420;7.036;2023-05-29T00:06:28;5.55;;;2.90;;
18623;SDS011;9441;51.420;7.036;2023-05-29T00:07:30;4.90;;;3.00;;
18623;SDS011;9441;51.420;7.036;2023-05-29T00:08:32;4.95;;;2.70;;
18623;SDS011;9441;51.420;7.036;2023-05-29T00:09:34;7.07;;;2.90;;
18623;SDS011;9441;51.420;7.036;2023-05-29T00:10:36;9.52;;;3.05;;
18623;SDS011;9441;51.420;7.036;2023-05-29T00:11:37;11.60;;;2.80;;
18623;SDS011;9441;51.420;7.036;2023-05-29T00:12:40;8.45;;;2.90;;
18623;SDS011;9441;51.420;7.036;2023-05-29T00:13:41;5.15;;;2.92;;
18623;SDS011;9441;51.420;7.036;2023-05-29T00:14:43;4.82;;;2.85;;
18623;SDS011;9441;51.420;7.036;2023-05-29T00:15:46;8.20;;;3.33;;
18623;SDS011;9441;51.420;7.036;2023-05-29T00:16:50;4.88;;;2.90;;
18623;SDS011;9441;51.420;7.036;2023-05-29T00:17:52;8.38;;;2.88;;
18623;SDS011;9441;51.420;7.036;2023-05-29T00:18:55;5.53;;;2.85;;
18623;SDS011;9441;51.420;7.036;2023-05-29T00:19:58;5.85;;;3.00;;
18623;SDS011;9441;51.420;7.036;2023-05-29T00:21:01;4.18;;;3.10;;
18623;SDS011;9441;51.420;7.036;2023-05-29T00:22:03;4.78;;;3.08;;
18623;SDS011;9441;51.420;7.036;2023-05-29T00:23:05;4.07;;;2.90;;
18623;SDS011;9441;51.420;7.036;2023-05-29T00:24:07;4.53;;;2.83;;
18623;SDS011;9441;51.420;7.036;2023-05-29T00:25:09;7.93;;;3.03;;
18623;SDS011;9441;51.420;7.036;2023-05-29T00:26:10;5.97;;;2.92;;
18623;SDS011;9441;51.420;7.036;2023-05-29T00:27:14;6.45;;;3.17;;
18623;SDS011;9441;51.420;7.036;2023-05-29T00:28:16;5.53;;;2.85;;
18623;SDS011;9441;51.420;7.036;2023-05-29T00:29:18;8.25;;;3.10;;
18623;SDS011;9441;51.420;7.036;2023-05-29T00:30:21;5.72;;;3.13;;
18623;SDS011;9441;51.420;7.036;2023-05-29T00:31:23;4.57;;;2.70;;
18623;SDS011;9441;51.420;7.036;2023-05-29T00:32:26;6.82;;;3.10;;
18623;SDS011;9441;51.420;7.036;2023-05-29T00:33:29;8.00;;;3.30;;
18623;SDS011;9441;51.420;7.036;2023-05-29T00:34:30;5.15;;;3.13;;
18623;SDS011;9441;51.420;7.036;2023-05-29T00:35:33;6.68;;;3.20;;
18623;SDS011;9441;51.420;7.036;2023-05-29T00:36:34;5.72;;;2.90;;
18623;SDS011;9441;51.420;7.036;2023-05-29T00:37:38;5.80;;;3.08;;
18623;SDS011;9441;51.420;7.036;2023-05-29T00:38:39;5.93;;;2.78;;
18623;SDS011;9441;51.420;7.036;2023-05-29T00:39:42;9.00;;;3.55;;
18623;SDS011;9441;51.420;7.036;2023-05-29T00:40:43;7.30;;;3.00;;
18623;SDS011;9441;51.420;7.036;2023-05-29T00:41:45;4.80;;;2.83;;
18623;SDS011;9441;51.420;7.036;2023-05-29T00:42:51;6.38;;;3.08;;
18623;SDS011;9441;51.420;7.036;2023-05-29T00:43:53;8.57;;;2.92;;
18623;SDS011;9441;51.420;7.036;2023-05-29T00:44:54;6.10;;;3.03;;
18623;SDS011;9441;51.420;7.036;2023-05-29T00:45:57;7.57;;;3.13;;
18623;SDS011;9441;51.420;7.036;2023-05-29T00:46:58;6.30;;;3.00;;
18623;SDS011;9441;51.420;7.036;2023-05-29T00:48:02;5.30;;;2.97;;
18623;SDS011;9441;51.420;7.036;2023-05-29T00:49:03;6.70;;;3.30;;
18623;SDS011;9441;51.420;7.036;2023-05-29T00:50:06;5.82;;;3.17;;
18623;SDS011;9441;51.420;7.036;2023-05-29T00:51:09;4.55;;;2.83;;
18623;SDS011;9441;51.420;7.036;2023-05-29T00:52:12;7.57;;;3.28;;
18623;SDS011;9441;51.420;7.036;2023-05-29T00:53:14;9.30;;;3.03;;
18623;SDS011;9441;51.420;7.036;2023-05-29T00:54:17;7.65;;;3.33;;
18623;SDS011;9441;51.420;7.036;2023-05-29T00:55:21;5.72;;;3.08;;
18623;SDS011;9441;51.420;7.036;2023-05-29T00:56:24;6.15;;;3.50;;
18623;SDS011;9441;51.420;7.036;2023-05-29T00:57:26;8.00;;;3.25;;
18623;SDS011;9441;51.420;7.036;2023-05-29T00:58:28;5.07;;;2.88;;
18623;SDS011;9441;51.420;7.036;2023-05-29T00:59:31;6.25;;;3.33;;
18623;SDS011;9441;51.420;7.036;2023-05-29T01:00:34;7.10;;;3.13;;
18623;SDS011;9441;51.420;7.036;2023-05-29T01:01:36;6.68;;;3.03;;
18623;SDS011;9441;51.420;7.036;2023-05-29T01:02:38;8.20;;;2.95;;
18623;SDS011;9441;51.420;7.036;2023-05-29T01:03:42;8.18;;;3.10;;
18623;SDS011;9441;51.420;7.036;2023-05-29T01:04:45;6.20;;;3.10;;
18623;SDS011;9441;51.420;7.036;2023-05-29T01:05:46;7.38;;;3.08;;
18623;SDS011;9441;51.420;7.036;2023-05-29T01:06:49;7.97;;;4.28;;
18623;SDS011;9441;51.420;7.036;2023-05-29T01:07:54;7.85;;;3.53;;
18623;SDS011;9441;51.420;7.036;2023-05-29T01:08:56;6.95;;;3.22;;
18623;SDS011;9441;51.420;7.036;2023-05-29T01:09:58;9.90;;;3.22;;
18623;SDS011;9441;51.420;7.036;2023-05-29T01:11:04;6.00;;;3.45;;
18623;SDS011;9441;51.420;7.036;2023-05-29T01:12:08;10.57;;;3.30;;
18623;SDS011;9441;51.420;7.036;2023-05-29T01:13:17;10.45;;;3.13;;
18623;SDS011;9441;51.420;7.036;2023-05-29T01:14:21;7.13;;;3.05;;
18623;SDS011;9441;51.420;7.036;2023-05-29T01:15:29;6.25;;;3.40;;
18623;SDS011;9441;51.420;7.036;2023-05-29T01:16:35;10.18;;;3.05;;
18623;SDS011;9441;51.420;7.036;2023-05-29T01:17:42;10.63;;;3.30;;
18623;SDS011;9441;51.420;7.036;2023-05-29T01:18:50;6.32;;;3.53;;
18623;SDS011;9441;51.420;7.036;2023-05-29T01:19:59;10.38;;;3.25;;
18623;SDS011;9441;51.420;7.036;2023-05-29T01:21:06;9.65;;;3.20;;
18623;SDS011;9441;51.420;7.036;2023-05-29T01:22:11;11.77;;;3.42;;
18623;SDS011;9441;51.420;7.036;2023-05-29T01:23:27;12.10;;;3.33;;
18623;SDS011;9441;51.420;7.036;2023-05-29T01:24:37;6.85;;;3.63;;
18623;SDS011;9441;51.420;7.036;2023-05-29T01:25:44;9.95;;;3.03;;
18623;SDS011;9441;51.420;7.036;2023-05-29T01:26:51;5.93;;;3.40;;
18623;SDS011;9441;51.420;7.036;2023-05-29T01:27:53;13.18;;;3.40;;
18623;SDS011;9441;51.420;7.036;2023-05-29T01:28:57;12.85;;;3.35;;
18623;SDS011;9441;51.420;7.036;2023-05-29T01:29:58;9.90;;;3.38;;
18623;SDS011;9441;51.420;7.036;2023-05-29T01:31:04;12.47;;;3.43;;
18623;SDS011;9441;51.420;7.036;2023-05-29T01:32:06;10.13;;;3.03;;
18623;SDS011;9441;51.420;7.036;2023-05-29T01:33:08;9.03;;;3.30;;
18623;SDS011;9441;51.420;7.036;2023-05-29T01:34:10;6.53;;;3.08;;
18623;SDS011;9441;51.420;7.036;2023-05-29T01:35:13;10.02;;;3.03;;
18623;SDS011;9441;51.420;7.036;2023-05-29T01:36:15;11.30;;;3.85;;
18623;SDS011;9441;51.420;7.036;2023-05-29T01:37:17;8.33;;;3.40;;
18623;SDS011;9441;51.420;7.036;2023-05-29T01:38:19;9.35;;;3.47;;
18623;SDS011;9441;51.420;7.036;2023-05-29T01:39:21;8.50;;;3.30;;
18623;SDS011;9441;51.420;7.036;2023-05-29T01:40:23;11.23;;;3.53;;
18623;SDS011;9441;51.420;7.036;2023-05-29T01:41:26;11.97;;;3.37;;
18623;SDS011;9441;51.420;7.036;2023-05-29T01:42:30;12.67;;;3.30;;
18623;SDS011;9441;51.420;7.036;2023-05-29T01:43:31;10.20;;;2.97;;
18623;SDS011;9441;51.420;7.036;2023-05-29T01:44:34;10.73;;;2.92;;
18623;SDS011;9441;51.420;7.036;2023-05-29T01:45:36;13.75;;;3.40;;
18623;SDS011;9441;51.420;7.036;2023-05-29T01:46:38;12.57;;;3.20;;
18623;SDS011;9441;51.420;7.036;2023-05-29T01:47:41;11.97;;;3.43;;
18623;SDS011;9441;51.420;7.036;2023-05-29T01:48:42;11.90;;;3.17;;
18623;SDS011;9441;51.420;7.036;2023-05-29T01:49:45;9.47;;;3.03;;
18623;SDS011;9441;51.420;7.036;2023-05-29T01:50:48;9.23;;;3.00;;
18623;SDS011;9441;51.420;7.036;2023-05-29T01:51:50;10.20;;;3.13;;
18623;SDS011;9441;51.420;7.036;2023-05-29T01:52:52;10.83;;;2.97;;
18623;SDS011;9441;51.420;7.036;2023-05-29T01:53:54;9.50;;;2.83;;
18623;SDS011;9441;51.420;7.036;2023-05-29T01:54:55;8.47;;;3.10;;
18623;SDS011;9441;51.420;7.036;2023-05-29T01:55:58;15.13;;;3.27;;
18623;SDS011;9441;51.420;7.036;2023-05-29T01:56:59;11.20;;;2.90;;
18623;SDS011;9441;51.420;7.036;2023-05-29T01:58:04;14.20;;;3.40;;
18623;SDS011;9441;51.420;7.036;2023-05-29T01:59:06;12.93;;;3.50;;
18623;SDS011;9441;51.420;7.036;2023-05-29T02:00:10;10.33;;;3.33;;
18623;SDS011;9441;51.420;7.036;2023-05-29T02:01:15;14.10;;;4.63;;
18623;SDS011;9441;51.420;7.036;2023-05-29T02:02:17;14.37;;;3.60;;
18623;SDS011;9441;51.420;7.036;2023-05-29T02:03:19;11.37;;;3.20;;
18623;SDS011;9441;51.420;7.036;2023-05-29T02:04:21;10.53;;;3.17;;
18623;SDS011;9441;51.420;7.036;2023-05-29T02:05:23;13.70;;;3.47;;
18623;SDS011;9441;51.420;7.036;2023-05-29T02:06:24;9.77;;;3.30;;
18623;SDS011;9441;51.420;7.036;2023-05-29T02:07:27;8.47;;;2.90;;
18623;SDS011;9441;51.420;7.036;2023-05-29T02:08:28;11.57;;;2.87;;
18623;SDS011;9441;51.420;7.036;2023-05-29T02:09:30;13.10;;;3.97;;
18623;SDS011;9441;51.420;7.036;2023-05-29T02:10:32;11.33;;;3.60;;
18623;SDS011;9441;51.420;7.036;2023-05-29T02:11:34;18.53;;;3.77;;
18623;SDS011;9441;51.420;7.036;2023-05-29T02:12:36;11.67;;;3.23;;
18623;SDS011;9441;51.420;7.036;2023-05-29T02:13:39;8.63;;;3.47;;
18623;SDS011;9441;51.420;7.036;2023-05-29T02:14:41;11.60;;;3.27;;
18623;SDS011;9441;51.420;7.036;2023-05-29T02:15:44;12.43;;;3.10;;
18623;SDS011;9441;51.420;7.036;2023-05-29T02:16:46;13.13;;;3.60;;
18623;SDS011;9441;51.420;7.036;2023-05-29T02:17:49;10.00;;;3.00;;
18623;SDS011;9441;51.420;7.036;2023-05-29T02:18:52;12.63;;;3.43;;
18623;SDS011;9441;51.420;7.036;2023-05-29T02:19:54;12.23;;;2.77;;
18623;SDS011;9441;51.420;7.036;2023-05-29T02:20:56;10.27;;;3.23;;
18623;SDS011;9441;51.420;7.036;2023-05-29T02:21:58;15.73;;;3.13;;
18623;SDS011;9441;51.420;7.036;2023-05-29T02:22:59;13.47;;;3.20;;
18623;SDS011;9441;51.420;7.036;2023-05-29T02:24:02;14.17;;;3.20;;
18623;SDS011;9441;51.420;7.036;2023-05-29T02:25:03;11.73;;;3.33;;
18623;SDS011;9441;51.420;7.036;2023-05-29T02:26:07;13.47;;;3.30;;
18623;SDS011;9441;51.420;7.036;2023-05-29T02:27:09;11.63;;;3.20;;
18623;SDS011;9441;51.420;7.036;2023-05-29T02:28:11;14.63;;;3.17;;
18623;SDS011;9441;51.420;7.036;2023-05-29T02:29:15;18.00;;;3.30;;
18623;SDS011;9441;51.420;7.036;2023-05-29T02:30:17;16.80;;;3.40;;
18623;SDS011;9441;51.420;7.036;2023-05-29T02:31:18;12.37;;;3.13;;
18623;SDS011;9441;51.420;7.036;2023-05-29T02:32:21;15.00;;;3.27;;
18623;SDS011;9441;51.420;7.036;2023-05-29T02:33:23;16.87;;;3.37;;
18623;SDS011;9441;51.420;7.036;2023-05-29T02:34:27;13.67;;;3.47;;
18623;SDS011;9441;51.420;7.036;2023-05-29T02:35:29;14.43;;;3.00;;
18623;SDS011;9441;51.420;7.036;2023-05-29T02:36:31;16.33;;;3.13;;
18623;SDS011;9441;51.420;7.036;2023-05-29T02:37:35;10.97;;;3.47;;
18623;SDS011;9441;51.420;7.036;2023-05-29T02:38:38;13.07;;;3.50;;
18623;SDS011;9441;51.420;7.036;2023-05-29T02:39:40;22.27;;;3.40;;
18623;SDS011;9441;51.420;7.036;2023-05-29T02:40:43;16.80;;;3.43;;
18623;SDS011;9441;51.420;7.036;2023-05-29T02:41:44;14.93;;;3.03;;
18623;SDS011;9441;51.420;7.036;2023-05-29T02:42:47;14.13;;;3.13;;
18623;SDS011;9441;51.420;7.036;2023-05-29T02:43:48;16.13;;;3.00;;
18623;SDS011;9441;51.420;7.036;2023-05-29T02:44:52;17.10;;;3.80;;
18623;SDS011;9441;51.420;7.036;2023-05-29T02:45:54;17.43;;;3.10;;
18623;SDS011;9441;51.420;7.036;2023-05-29T02:46:57;14.50;;;3.10;;
18623;SDS011;9441;51.420;7.036;2023-05-29T02:47:58;11.03;;;2.90;;
18623;SDS011;9441;51.420;7.036;2023-05-29T02:49:01;11.53;;;3.17;;
18623;SDS011;9441;51.420;7.036;2023-05-29T02:50:02;16.77;;;3.10;;
18623;SDS011;9441;51.420;7.036;2023-05-29T02:51:05;19.93;;;3.30;;
18623;SDS011;9441;51.420;7.036;2023-05-29T02:52:06;16.27;;;2.80;;
18623;SDS011;9441;51.420;7.036;2023-05-29T02:53:09;21.67;;;3.60;;
18623;SDS011;9441;51.420;7.036;2023-05-29T02:54:10;14.53;;;3.40;;
18623;SDS011;9441;51.420;7.036;2023-05-29T02:55:12;16.73;;;3.40;;
18623;SDS011;9441;51.420;7.036;2023-05-29T02:56:14;14.83;;;3.30;;
18623;SDS011;9441;51.420;7.036;2023-05-29T02:57:16;11.37;;;3.10;;
18623;SDS011;9441;51.420;7.036;2023-05-29T02:58:18;15.03;;;3.03;;
18623;SDS011;9441;51.420;7.036;2023-05-29T02:59:22;15.27;;;3.50;;
18623;SDS011;9441;51.420;7.036;2023-05-29T03:00:26;13.73;;;3.03;;
18623;SDS011;9441;51.420;7.036;2023-05-29T03:01:32;10.73;;;2.87;;
18623;SDS011;9441;51.420;7.036;2023-05-29T03:02:33;17.53;;;3.07;;
18623;SDS011;9441;51.420;7.036;2023-05-29T03:03:36;13.50;;;3.33;;
18623;SDS011;9441;51.420;7.036;2023-05-29T03:04:37;14.53;;;3.23;;
18623;SDS011;9441;51.420;7.036;2023-05-29T03:05:40;14.80;;;3.10;;
18623;SDS011;9441;51.420;7.036;2023-05-29T03:06:41;13.13;;;3.00;;
18623;SDS011;9441;51.420;7.036;2023-05-29T03:07:44;17.77;;;3.57;;
18623;SDS011;9441;51.420;7.036;2023-05-29T03:08:45;17.13;;;2.97;;
18623;SDS011;9441;51.420;7.036;2023-05-29T03:09:48;12.33;;;2.83;;
18623;SDS011;9441;51.420;7.036;2023-05-29T03:10:50;16.70;;;3.83;;
18623;SDS011;9441;51.420;7.036;2023-05-29T03:11:53;16.20;;;3.17;;
18623;SDS011;9441;51.420;7.036;2023-05-29T03:12:54;15.63;;;2.90;;
18623;SDS011;9441;51.420;7.036;2023-05-29T03:13:56;17.30;;;3.00;;
18623;SDS011;9441;51.420;7.036;2023-05-29T03:14:58;14.93;;;3.13;;
18623;SDS011;9441;51.420;7.036;2023-05-29T03:16:04;19.07;;;3.70;;
18623;SDS011;9441;51.420;7.036;2023-05-29T03:17:05;15.30;;;3.97;;
18623;SDS011;9441;51.420;7.036;2023-05-29T03:18:08;12.80;;;3.00;;
18623;SDS011;9441;51.420;7.036;2023-05-29T03:19:09;12.03;;;3.00;;
18623;SDS011;9441;51.420;7.036;2023-05-29T03:20:12;16.33;;;3.50;;
18623;SDS011;9441;51.420;7.036;2023-05-29T03:21:13;14.73;;;3.10;;
18623;SDS011;9441;51.420;7.036;2023-05-29T03:22:16;17.03;;;3.30;;
18623;SDS011;9441;51.420;7.036;2023-05-29T03:23:17;14.90;;;3.17;;
18623;SDS011;9441;51.420;7.036;2023-05-29T03:24:20;17.47;;;4.13;;
18623;SDS011;9441;51.420;7.036;2023-05-29T03:25:23;15.03;;;3.80;;
18623;SDS011;9441;51.420;7.036;2023-05-29T03:26:26;14.17;;;3.10;;
18623;SDS011;9441;51.420;7.036;2023-05-29T03:27:27;16.20;;;3.23;;
18623;SDS011;9441;51.420;7.036;2023-05-29T03:28:37;16.87;;;3.50;;
18623;SDS011;9441;51.420;7.036;2023-05-29T03:29:41;12.30;;;2.87;;
18623;SDS011;9441;51.420;7.036;2023-05-29T03:30:43;16.10;;;3.50;;
18623;SDS011;9441;51.420;7.036;2023-05-29T03:31:49;15.37;;;3.40;;
18623;SDS011;9441;51.420;7.036;2023-05-29T03:32:57;17.90;;;3.30;;
18623;SDS011;9441;51.420;7.036;2023-05-29T03:34:15;16.90;;;3.47;;
18623;SDS011;9441;51.420;7.036;2023-05-29T03:35:23;17.80;;;3.27;;
18623;SDS011;9441;51.420;7.036;2023-05-29T03:36:24;15.10;;;3.20;;
18623;SDS011;9441;51.420;7.036;2023-05-29T03:37:27;13.43;;;3.07;;
18623;SDS011;9441;51.420;7.036;2023-05-29T03:38:28;24.50;;;3.83;;
18623;SDS011;9441;51.420;7.036;2023-05-29T03:39:33;22.37;;;4.00;;
18623;SDS011;9441;51.420;7.036;2023-05-29T03:40:34;16.20;;;3.13;;
18623;SDS011;9441;51.420;7.036;2023-05-29T03:41:38;12.47;;;3.20;;
18623;SDS011;9441;51.420;7.036;2023-05-29T03:42:40;17.70;;;3.40;;
18623;SDS011;9441;51.420;7.036;2023-05-29T03:43:42;18.37;;;3.20;;
18623;SDS011;9441;51.420;7.036;2023-05-29T03:44:43;11.57;;;3.20;;
18623;SDS011;9441;51.420;7.036;2023-05-29T03:45:46;13.00;;;3.20;;
18623;SDS011;9441;51.420;7.036;2023-05-29T03:46:47;19.87;;;3.43;;
18623;SDS011;9441;51.420;7.036;2023-05-29T03:47:51;16.10;;;3.60;;
18623;SDS011;9441;51.420;7.036;2023-05-29T03:48:52;16.53;;;3.40;;
18623;SDS011;9441;51.420;7.036;2023-05-29T03:49:55;12.03;;;3.00;;
18623;SDS011;9441;51.420;7.036;2023-05-29T03:50:56;20.00;;;3.70;;
18623;SDS011;9441;51.420;7.036;2023-05-29T03:52:07;12.37;;;3.10;;
18623;SDS011;9441;51.420;7.036;2023-05-29T03:53:10;16.87;;;3.43;;
18623;SDS011;9441;51.420;7.036;2023-05-29T03:54:11;15.27;;;3.63;;
18623;SDS011;9441;51.420;7.036;2023-05-29T03:55:14;14.77;;;2.90;;
18623;SDS011;9441;51.420;7.036;2023-05-29T03:56:16;18.10;;;3.30;;
18623;SDS011;9441;51.420;7.036;2023-05-29T03:57:18;18.00;;;3.60;;
18623;SDS011;9441;51.420;7.036;2023-05-29T03:58:20;22.93;;;3.33;;
18623;SDS011;9441;51.420;7.036;2023-05-29T03:59:22;14.23;;;3.03;;
18623;SDS011;9441;51.420;7.036;2023-05-29T04:00:24;22.57;;;4.17;;
18623;SDS011;9441;51.420;7.036;2023-05-29T04:01:26;15.83;;;3.67;;
18623;SDS011;9441;51.420;7.036;2023-05-29T04:02:28;19.57;;;3.23;;
18623;SDS011;9441;51.420;7.036;2023-05-29T04:03:32;20.13;;;3.50;;
18623;SDS011;9441;51.420;7.036;2023-05-29T04:04:33;20.00;;;4.30;;
18623;SDS011;9441;51.420;7.036;2023-05-29T04:05:36;13.40;;;3.10;;
18623;SDS011;9441;51.420;7.036;2023-05-29T04:06:37;12.23;;;2.90;;
18623;SDS011;9441;51.420;7.036;2023-05-29T04:07:41;18.13;;;3.40;;
18623;SDS011;9441;51.420;7.036;2023-05-29T04:08:42;11.80;;;2.90;;
18623;SDS011;9441;51.420;7.036;2023-05-29T04:09:44;12.30;;;3.27;;
18623;SDS011;9441;51.420;7.036;2023-05-29T04:10:46;21.10;;;3.70;;
18623;SDS011;9441;51.420;7.036;2023-05-29T04:11:49;15.27;;;3.30;;
18623;SDS011;9441;51.420;7.036;2023-05-29T04:12:52;15.00;;;3.30;;
18623;SDS011;9441;51.420;7.036;2023-05-29T04:13:56;20.90;;;4.07;;
18623;SDS011;9441;51.420;7.036;2023-05-29T04:14:58;19.13;;;3.50;;
18623;SDS011;9441;51.420;7.036;2023-05-29T04:16:00;19.40;;;3.53;;
18623;SDS011;9441;51.420;7.036;2023-05-29T04:17:01;20.23;;;3.60;;
18623;SDS011;9441;51.420;7.036;2023-05-29T04:18:04;10.87;;;3.13;;
18623;SDS011;9441;51.420;7.036;2023-05-29T04:19:08;13.40;;;3.17;;
18623;SDS011;9441;51.420;7.036;2023-05-29T04:20:11;16.27;;;3.13;;
18623;SDS011;9441;51.420;7.036;2023-05-29T04:21:12;15.30;;;3.60;;
18623;SDS011;9441;51.420;7.036;2023-05-29T04:22:15;17.20;;;3.37;;
18623;SDS011;9441;51.420;7.036;2023-05-29T04:23:17;17.93;;;3.43;;
18623;SDS011;9441;51.420;7.036;2023-05-29T04:24:19;18.03;;;3.90;;
18623;SDS011;9441;51.420;7.036;2023-05-29T04:25:20;15.57;;;3.40;;
18623;SDS011;9441;51.420;7.036;2023-05-29T04:26:24;17.73;;;3.27;;
18623;SDS011;9441;51.420;7.036;2023-05-29T04:27:26;15.30;;;3.63;;
18623;SDS011;9441;51.420;7.036;2023-05-29T04:28:27;18.03;;;3.50;;
18623;SDS011;9441;51.420;7.036;2023-05-29T04:29:30;24.67;;;3.90;;
18623;SDS011;9441;51.420;7.036;2023-05-29T04:30:34;11.97;;;2.93;;
18623;SDS011;9441;51.420;7.036;2023-05-29T04:31:37;16.97;;;3.10;;
18623;SDS011;9441;51.420;7.036;2023-05-29T04:32:38;15.37;;;3.23;;
18623;SDS011;9441;51.420;7.036;2023-05-29T04:33:41;12.53;;;3.10;;
18623;SDS011;9441;51.420;7.036;2023-05-29T04:34:46;13.90;;;3.50;;
18623;SDS011;9441;51.420;7.036;2023-05-29T04:35:50;21.93;;;3.80;;
18623;SDS011;9441;51.420;7.036;2023-05-29T04:36:53;20.80;;;3.70;;
18623;SDS011;9441;51.420;7.036;2023-05-29T04:37:56;18.40;;;4.03;;
18623;SDS011;9441;51.420;7.036;2023-05-29T04:39:01;21.60;;;3.60;;
18623;SDS011;9441;51.420;7.036;2023-05-29T04:40:05;17.57;;;3.17;;
18623;SDS011;9441;51.420;7.036;2023-05-29T04:41:09;20.80;;;3.83;;
18623;SDS011;9441;51.420;7.036;2023-05-29T04:42:13;21.53;;;3.67;;
18623;SDS011;9441;51.420;7.036;2023-05-29T04:43:15;19.50;;;3.50;;
18623;SDS011;9441;51.420;7.036;2023-05-29T04:44:29;17.83;;;3.00;;
18623;SDS011;9441;51.420;7.036;2023-05-29T04:45:33;17.30;;;3.20;;
18623;SDS011;9441;51.420;7.036;2023-05-29T04:46:37;13.33;;;3.10;;
18623;SDS011;9441;51.420;7.036;2023-05-29T04:47:39;21.07;;;3.50;;
18623;SDS011;9441;51.420;7.036;2023-05-29T04:48:44;17.23;;;3.60;;
18623;SDS011;9441;51.420;7.036;2023-05-29T04:49:49;11.00;;;3.63;;
18623;SDS011;9441;51.420;7.036;2023-05-29T04:50:50;19.00;;;3.50;;
18623;SDS011;9441;51.420;7.036;2023-05-29T04:51:52;17.03;;;3.30;;
18623;SDS011;9441;51.420;7.036;2023-05-29T04:52:54;19.80;;;3.60;;
18623;SDS011;9441;51.420;7.036;2023-05-29T04:53:58;24.10;;;4.00;;
18623;SDS011;9441;51.420;7.036;2023-05-29T04:55:00;14.10;;;3.43;;
18623;SDS011;9441;51.420;7.036;2023-05-29T04:56:02;17.40;;;3.83;;
18623;SDS011;9441;51.420;7.036;2023-05-29T04:57:04;15.80;;;3.17;;
18623;SDS011;9441;51.420;7.036;2023-05-29T04:58:08;13.07;;;3.53;;
18623;SDS011;9441;51.420;7.036;2023-05-29T04:59:12;20.93;;;3.60;;
18623;SDS011;9441;51.420;7.036;2023-05-29T05:00:14;16.07;;;3.80;;
18623;SDS011;9441;51.420;7.036;2023-05-29T05:01:19;14.63;;;3.33;;
18623;SDS011;9441;51.420;7.036;2023-05-29T05:02:20;18.37;;;3.20;;
18623;SDS011;9441;51.420;7.036;2023-05-29T05:03:22;21.20;;;3.50;;
18623;SDS011;9441;51.420;7.036;2023-05-29T05:04:25;12.20;;;3.23;;
18623;SDS011;9441;51.420;7.036;2023-05-29T05:05:29;20.17;;;2.83;;
18623;SDS011;9441;51.420;7.036;2023-05-29T05:06:33;23.30;;;3.90;;
18623;SDS011;9441;51.420;7.036;2023-05-29T05:07:35;22.73;;;3.80;;
18623;SDS011;9441;51.420;7.036;2023-05-29T05:08:37;16.00;;;3.63;;
18623;SDS011;9441;51.420;7.036;2023-05-29T05:09:39;20.00;;;3.33;;
18623;SDS011;9441;51.420;7.036;2023-05-29T05:10:42;16.83;;;3.40;;
18623;SDS011;9441;51.420;7.036;2023-05-29T05:11:44;12.97;;;3.60;;
18623;SDS011;9441;51.420;7.036;2023-05-29T05:12:46;16.20;;;3.10;;
18623;SDS011;9441;51.420;7.036;2023-05-29T05:13:50;17.00;;;3.63;;
18623;SDS011;9441;51.420;7.036;2023-05-29T05:14:52;17.27;;;3.47;;
18623;SDS011;9441;51.420;7.036;2023-05-29T05:15:54;15.00;;;3.23;;
18623;SDS011;9441;51.420;7.036;2023-05-29T05:16:57;24.23;;;3.80;;
18623;SDS011;9441;51.420;7.036;2023-05-29T05:17:59;13.63;;;3.50;;
18623;SDS011;9441;51.420;7.036;2023-05-29T05:19:01;22.80;;;3.83;;
18623;SDS011;9441;51.420;7.036;2023-05-29T05:20:07;18.87;;;3.67;;
18623;SDS011;9441;51.420;7.036;2023-05-29T05:21:10;17.00;;;3.93;;
18623;SDS011;9441;51.420;7.036;2023-05-29T05:22:13;18.30;;;3.00;;
18623;SDS011;9441;51.420;7.036;2023-05-29T05:23:15;22.03;;;3.40;;
18623;SDS011;9441;51.420;7.036;2023-05-29T05:24:17;18.40;;;3.90;;
18623;SDS011;9441;51.420;7.036;2023-05-29T05:25:18;17.10;;;3.40;;
18623;SDS011;9441;51.420;7.036;2023-05-29T05:26:21;18.27;;;3.50;;
18623;SDS011;9441;51.420;7.036;2023-05-29T05:27:22;17.50;;;4.10;;
18623;SDS011;9441;51.420;7.036;2023-05-29T05:28:24;18.43;;;3.80;;
18623;SDS011;9441;51.420;7.036;2023-05-29T05:29:26;19.93;;;3.30;;
18623;SDS011;9441;51.420;7.036;2023-05-29T05:30:28;12.40;;;2.93;;
18623;SDS011;9441;51.420;7.036;2023-05-29T05:31:30;14.40;;;3.80;;
18623;SDS011;9441;51.420;7.036;2023-05-29T05:32:32;18.97;;;3.27;;
18623;SDS011;9441;51.420;7.036;2023-05-29T05:33:39;17.67;;;3.60;;
18623;SDS011;9441;51.420;7.036;2023-05-29T05:34:42;12.67;;;3.40;;
18623;SDS011;9441;51.420;7.036;2023-05-29T05:35:43;23.57;;;3.70;;
18623;SDS011;9441;51.420;7.036;2023-05-29T05:36:47;13.73;;;3.13;;
18623;SDS011;9441;51.420;7.036;2023-05-29T05:37:49;17.80;;;3.50;;
18623;SDS011;9441;51.420;7.036;2023-05-29T05:38:51;18.10;;;3.67;;
18623;SDS011;9441;51.420;7.036;2023-05-29T05:39:53;13.47;;;3.37;;
18623;SDS011;9441;51.420;7.036;2023-05-29T05:40:57;18.13;;;3.53;;
18623;SDS011;9441;51.420;7.036;2023-05-29T05:42:05;14.63;;;3.00;;
18623;SDS011;9441;51.420;7.036;2023-05-29T05:43:18;13.00;;;2.97;;
18623;SDS011;9441;51.420;7.036;2023-05-29T05:44:46;13.87;;;3.07;;
18623;SDS011;9441;51.420;7.036;2023-05-29T05:45:48;13.97;;;3.30;;
18623;SDS011;9441;51.420;7.036;2023-05-29T05:46:50;13.93;;;3.00;;
18623;SDS011;9441;51.420;7.036;2023-05-29T05:47:54;17.40;;;3.90;;
18623;SDS011;9441;51.420;7.036;2023-05-29T05:48:57;20.20;;;3.07;;
18623;SDS011;9441;51.420;7.036;2023-05-29T05:50:01;13.90;;;3.00;;
18623;SDS011;9441;51.420;7.036;2023-05-29T05:51:03;19.27;;;3.17;;
18623;SDS011;9441;51.420;7.036;2023-05-29T05:52:07;15.70;;;3.50;;
18623;SDS011;9441;51.420;7.036;2023-05-29T05:53:09;19.07;;;3.17;;
18623;SDS011;9441;51.420;7.036;2023-05-29T05:54:11;16.70;;;3.60;;
18623;SDS011;9441;51.420;7.036;2023-05-29T05:55:13;13.40;;;3.00;;
18623;SDS011;9441;51.420;7.036;2023-05-29T05:56:15;18.63;;;3.30;;
18623;SDS011;9441;51.420;7.036;2023-05-29T05:57:17;13.97;;;3.10;;
18623;SDS011;9441;51.420;7.036;2023-05-29T05:58:22;11.47;;;3.20;;
18623;SDS011;9441;51.420;7.036;2023-05-29T05:59:24;19.77;;;3.37;;
18623;SDS011;9441;51.420;7.036;2023-05-29T06:00:27;17.83;;;3.60;;
18623;SDS011;9441;51.420;7.036;2023-05-29T06:01:30;14.33;;;3.20;;
18623;SDS011;9441;51.420;7.036;2023-05-29T06:02:33;18.40;;;3.50;;
18623;SDS011;9441;51.420;7.036;2023-05-29T06:03:35;16.67;;;3.00;;
18623;SDS011;9441;51.420;7.036;2023-05-29T06:04:40;18.93;;;3.13;;
18623;SDS011;9441;51.420;7.036;2023-05-29T06:05:44;20.00;;;3.90;;
18623;SDS011;9441;51.420;7.036;2023-05-29T06:06:45;14.67;;;3.23;;
18623;SDS011;9441;51.420;7.036;2023-05-29T06:07:49;10.97;;;3.07;;
18623;SDS011;9441;51.420;7.036;2023-05-29T06:08:51;19.70;;;3.50;;
18623;SDS011;9441;51.420;7.036;2023-05-29T06:09:54;15.97;;;3.40;;
18623;SDS011;9441;51.420;7.036;2023-05-29T06:10:55;17.13;;;3.30;;
18623;SDS011;9441;51.420;7.036;2023-05-29T06:11:57;19.93;;;3.57;;
18623;SDS011;9441;51.420;7.036;2023-05-29T06:13:00;13.23;;;3.20;;
18623;SDS011;9441;51.420;7.036;2023-05-29T06:14:14;14.40;;;3.23;;
18623;SDS011;9441;51.420;7.036;2023-05-29T06:15:17;17.03;;;3.17;;
18623;SDS011;9441;51.420;7.036;2023-05-29T06:16:20;12.73;;;3.43;;
18623;SDS011;9441;51.420;7.036;2023-05-29T06:17:22;24.10;;;3.73;;
18623;SDS011;9441;51.420;7.036;2023-05-29T06:18:24;12.37;;;3.17;;
18623;SDS011;9441;51.420;7.036;2023-05-29T06:19:26;13.17;;;3.10;;
18623;SDS011;9441;51.420;7.036;2023-05-29T06:20:34;12.43;;;3.17;;